Yukuhashi, Japan
Current Conditions -  °F | °C
As of 6:00 PM on Sunday 21 Dec 2014 (Local Time) from RJFR Reporting Station
Snow Showers Snow Showers  
Wind Chill: 32°   Ceiling: 3500
Heat Index: 39°   Visibility: 6mi
Dew Point: 32°   Wind: 10mph
Humidity: 75%   Direction: 240°WSW
Pressure: 30.09"   Gusts: NA
Location:  33.73°N, 130.97°E
Report Text: RJFR 210900Z 24009KT 9999 -SHRASN FEW015 SCT025 BKN035 04/00 Q1019
Loading
Personal Weather Stations






























Interactive Weather Map New forecast layout! Learn more

10-Day Weather Forecast

Advertisements
Track Severe Weather on mobile